Time;durP1;ratioP1;P1;durP2;ratioP2;P2;SDS_P1;SDS_P2;PMS_P1;PMS_P2;Temp;Humidity;BMP_temperature;BMP_pressure;BME280_temperature;BME280_humidity;BME280_pressure;Samples;Min_cycle;Max_cycle;Signal;HPM_P1;HPM_P2
2022/08/21 00:01:39;;;;;;;;;;;18.80;68.40;;;;;;5073666;28;19962;-80
2022/08/21 00:04:05;;;;;;;;;;;18.70;68.40;;;;;;5068054;28;19912;-80
2022/08/21 00:06:32;;;;;;;;;;;18.60;68.60;;;;;;5071812;28;19916;-80
2022/08/21 00:08:58;;;;;;;;;;;18.60;68.70;;;;;;5066817;28;20303;-79
2022/08/21 00:11:23;;;;;;;;;;;18.60;68.90;;;;;;5050134;28;19932;-80
2022/08/21 00:13:49;;;;;;;;;;;18.60;68.90;;;;;;5061551;28;19921;-80
2022/08/21 00:16:14;;;;;;;;;;;18.50;68.90;;;;;;5065694;28;19924;-80
2022/08/21 00:18:40;;;;;;;;;;;18.50;68.90;;;;;;5072255;28;20414;-80
2022/08/21 00:21:06;;;;;;;;;;;18.50;68.90;;;;;;5072430;28;19927;-80
2022/08/21 00:23:33;;;;;;;;;;;18.50;69.00;;;;;;5071727;28;19916;-81
2022/08/21 00:25:59;;;;;;;;;;;18.40;69.10;;;;;;5079098;28;19960;-75
2022/08/21 00:28:24;;;;;;;;;;;18.40;69.10;;;;;;5097574;28;19938;-75
2022/08/21 00:30:50;;;;;;;;;;;18.40;69.20;;;;;;5096941;28;19908;-75
2022/08/21 00:33:16;;;;;;;;;;;18.30;69.30;;;;;;5094468;28;20318;-80
2022/08/21 00:35:42;;;;;;;;;;;18.40;69.30;;;;;;5077793;28;19920;-80
2022/08/21 00:38:08;;;;;;;;;;;18.30;69.20;;;;;;5073053;28;19917;-80
2022/08/21 00:40:38;;;;;;;;;;;18.30;69.20;;;;;;5076078;28;19982;-75
2022/08/21 00:43:07;;;;;;;;;;;18.30;69.40;;;;;;5082538;28;19908;-80
2022/08/21 00:45:33;;;;;;;;;;;18.30;69.30;;;;;;5072911;28;20428;-80
2022/08/21 00:47:59;;;;;;;;;;;18.30;69.50;;;;;;5096400;28;19908;-75
2022/08/21 00:50:27;;;;;;;;;;;18.20;69.60;;;;;;5059151;28;19931;-80
2022/08/21 00:52:53;;;;;;;;;;;18.20;69.50;;;;;;5078311;28;19916;-80
2022/08/21 00:55:20;;;;;;;;;;;18.20;69.60;;;;;;5072482;28;19921;-80
2022/08/21 00:57:48;;;;;;;;;;;18.20;69.60;;;;;;5074466;28;19913;-80
2022/08/21 01:00:16;;;;;;;;;;;18.10;69.60;;;;;;5075283;28;19913;-79
2022/08/21 01:02:41;;;;;;;;;;;18.10;69.70;;;;;;5091433;28;19931;-75
2022/08/21 01:05:07;;;;;;;;;;;18.10;69.70;;;;;;5066976;28;19921;-80
2022/08/21 01:07:33;;;;;;;;;;;18.10;69.60;;;;;;5053688;28;20005;-79
2022/08/21 01:09:59;;;;;;;;;;;18.10;70.20;;;;;;5074293;28;19955;-80
2022/08/21 01:12:25;;;;;;;;;;;18.00;69.70;;;;;;5070195;28;19983;-80
2022/08/21 01:14:50;;;;;;;;;;;18.00;69.80;;;;;;5075855;28;20330;-75
2022/08/21 01:17:16;;;;;;;;;;;18.00;69.90;;;;;;5076474;28;19962;-75
2022/08/21 01:19:42;;;;;;;;;;;18.00;70.00;;;;;;5074389;28;19920;-76
2022/08/21 01:22:08;;;;;;;;;;;17.90;70.00;;;;;;5074800;28;19908;-79
2022/08/21 01:24:34;;;;;;;;;;;17.90;70.10;;;;;;5073770;28;20363;-75
2022/08/21 01:26:59;;;;;;;;;;;17.90;70.10;;;;;;5072202;28;19913;-80
2022/08/21 01:29:31;;;;;;;;;;;17.90;70.10;;;;;;5071012;28;19947;-79
2022/08/21 01:31:58;;;;;;;;;;;17.90;70.10;;;;;;5071759;28;20007;-81
2022/08/21 01:34:24;;;;;;;;;;;17.80;70.10;;;;;;5070234;28;19923;-75
2022/08/21 01:36:49;;;;;;;;;;;17.80;70.10;;;;;;5072936;28;19917;-76
2022/08/21 01:39:15;;;;;;;;;;;17.80;70.20;;;;;;5054876;28;19974;-80
2022/08/21 01:41:40;;;;;;;;;;;17.80;70.30;;;;;;5049238;28;20008;-80
2022/08/21 01:44:06;;;;;;;;;;;17.80;70.40;;;;;;5071123;28;19955;-76
2022/08/21 01:46:32;;;;;;;;;;;17.80;70.40;;;;;;5057774;28;19920;-76
2022/08/21 01:48:58;;;;;;;;;;;17.80;70.50;;;;;;5058221;28;20318;-76
2022/08/21 01:51:23;;;;;;;;;;;17.70;70.50;;;;;;5074182;28;20308;-76
2022/08/21 01:53:49;;;;;;;;;;;17.70;70.60;;;;;;5075451;28;19939;-76
2022/08/21 01:56:15;;;;;;;;;;;17.70;70.50;;;;;;5057451;28;20371;-76
2022/08/21 01:58:43;;;;;;;;;;;17.70;70.40;;;;;;5074290;28;19955;-76
2022/08/21 02:01:09;;;;;;;;;;;17.70;70.40;;;;;;5074041;28;19915;-76
2022/08/21 02:03:34;;;;;;;;;;;17.70;70.40;;;;;;5074838;28;19995;-76
2022/08/21 02:06:00;;;;;;;;;;;17.70;70.40;;;;;;5075268;28;20016;-76
2022/08/21 02:08:27;;;;;;;;;;;17.60;70.50;;;;;;5069755;28;20415;-79
2022/08/21 02:10:52;;;;;;;;;;;17.60;70.60;;;;;;5069034;28;19916;-79
2022/08/21 02:13:18;;;;;;;;;;;17.60;70.60;;;;;;5061180;28;19920;-79
2022/08/21 02:15:44;;;;;;;;;;;17.60;70.70;;;;;;5073119;28;19920;-79
2022/08/21 02:18:10;;;;;;;;;;;17.50;70.80;;;;;;5065448;28;20020;-79
2022/08/21 02:20:38;;;;;;;;;;;17.50;70.80;;;;;;5075538;28;19909;-76
2022/08/21 02:23:05;;;;;;;;;;;17.50;70.80;;;;;;5073504;28;19947;-76
2022/08/21 02:25:31;;;;;;;;;;;17.50;70.80;;;;;;5072570;28;20197;-79
2022/08/21 02:27:57;;;;;;;;;;;17.50;70.80;;;;;;5055298;28;19912;-77
2022/08/21 02:30:24;;;;;;;;;;;17.40;70.80;;;;;;5074746;28;19909;-76
2022/08/21 02:32:50;;;;;;;;;;;17.40;70.80;;;;;;5074548;28;20256;-76
2022/08/21 02:35:16;;;;;;;;;;;17.40;71.00;;;;;;5073275;28;19908;-76
2022/08/21 02:37:51;;;;;;;;;;;17.40;71.00;;;;;;5074754;28;19908;-76
2022/08/21 02:40:18;;;;;;;;;;;17.40;71.00;;;;;;5075385;28;19912;-76
2022/08/21 02:42:44;;;;;;;;;;;17.30;71.00;;;;;;5073497;28;19932;-76
2022/08/21 02:45:11;;;;;;;;;;;17.30;71.10;;;;;;5069449;28;19917;-79
2022/08/21 02:47:36;;;;;;;;;;;17.30;71.10;;;;;;5055588;28;19912;-79
2022/08/21 02:50:03;;;;;;;;;;;17.30;71.00;;;;;;5069660;28;20003;-76
2022/08/21 02:52:29;;;;;;;;;;;17.30;71.10;;;;;;5073429;28;19964;-76
2022/08/21 02:54:54;;;;;;;;;;;17.30;71.20;;;;;;5075276;28;19940;-76
2022/08/21 02:57:20;;;;;;;;;;;17.20;71.20;;;;;;5073901;28;19912;-77
2022/08/21 02:59:46;;;;;;;;;;;17.20;71.30;;;;;;5074272;28;19917;-77
2022/08/21 03:02:12;;;;;;;;;;;17.20;71.50;;;;;;5076127;28;19939;-77
2022/08/21 03:04:38;;;;;;;;;;;17.20;71.60;;;;;;5076150;28;19916;-79
2022/08/21 03:07:03;;;;;;;;;;;17.20;71.70;;;;;;5071674;28;19938;-80
2022/08/21 03:09:29;;;;;;;;;;;17.20;71.80;;;;;;5069909;28;20388;-79
2022/08/21 03:11:54;;;;;;;;;;;17.10;71.80;;;;;;5075767;28;20271;-77
2022/08/21 03:14:20;;;;;;;;;;;17.10;71.80;;;;;;5091501;28;19912;-76
2022/08/21 03:16:46;;;;;;;;;;;17.10;71.80;;;;;;5069909;28;19908;-80
2022/08/21 03:19:11;;;;;;;;;;;17.10;71.80;;;;;;5077529;28;19978;-80
2022/08/21 03:21:37;;;;;;;;;;;17.10;71.80;;;;;;5072816;28;19916;-80
2022/08/21 03:24:04;;;;;;;;;;;17.10;71.80;;;;;;5073281;28;19917;-77
2022/08/21 03:26:29;;;;;;;;;;;17.00;71.90;;;;;;5058254;28;20283;-77
2022/08/21 03:28:56;;;;;;;;;;;17.00;71.90;;;;;;5066598;28;19917;-80
2022/08/21 03:31:21;;;;;;;;;;;17.00;71.90;;;;;;5075327;28;20371;-77
2022/08/21 03:33:47;;;;;;;;;;;17.00;71.90;;;;;;5092750;28;19912;-77
2022/08/21 03:36:12;;;;;;;;;;;17.00;72.00;;;;;;5075680;28;19966;-76
2022/08/21 03:38:38;;;;;;;;;;;16.90;71.90;;;;;;5074385;28;19917;-79
2022/08/21 03:41:05;;;;;;;;;;;16.90;71.90;;;;;;5068879;28;19917;-80
2022/08/21 03:43:31;;;;;;;;;;;16.90;72.00;;;;;;5061896;28;19913;-79
2022/08/21 03:45:57;;;;;;;;;;;16.90;71.90;;;;;;5065976;28;19920;-79
2022/08/21 03:48:22;;;;;;;;;;;16.80;71.90;;;;;;5054608;28;19920;-79
2022/08/21 03:50:49;;;;;;;;;;;16.80;72.00;;;;;;5070379;28;19923;-80
2022/08/21 03:53:15;;;;;;;;;;;16.80;72.10;;;;;;5070589;28;19972;-80
2022/08/21 03:55:40;;;;;;;;;;;16.80;72.00;;;;;;5070166;28;19913;-80
2022/08/21 03:58:06;;;;;;;;;;;16.80;72.00;;;;;;5077935;28;19923;-79
2022/08/21 04:00:32;;;;;;;;;;;16.70;72.20;;;;;;5074297;28;19920;-78
2022/08/21 04:02:57;;;;;;;;;;;16.70;72.30;;;;;;5058998;28;19921;-79
2022/08/21 04:05:29;;;;;;;;;;;16.70;72.40;;;;;;5073176;28;19917;-79
2022/08/21 04:07:58;;;;;;;;;;;16.70;72.50;;;;;;5078434;28;20434;-79
2022/08/21 04:10:24;;;;;;;;;;;16.70;72.60;;;;;;5079647;28;19988;-80
2022/08/21 04:12:50;;;;;;;;;;;16.60;72.50;;;;;;5082726;28;21233;-79
2022/08/21 04:15:16;;;;;;;;;;;16.60;72.50;;;;;;5081520;28;19974;-79
2022/08/21 04:17:42;;;;;;;;;;;16.60;72.70;;;;;;5071323;28;19944;-80
2022/08/21 04:20:08;;;;;;;;;;;16.60;72.90;;;;;;5040011;28;19924;-80
2022/08/21 04:22:33;;;;;;;;;;;16.60;73.00;;;;;;5080191;28;19948;-80
2022/08/21 04:24:59;;;;;;;;;;;16.60;73.00;;;;;;5078816;28;19938;-81
2022/08/21 04:27:24;;;;;;;;;;;16.50;73.00;;;;;;5081719;28;19913;-81
2022/08/21 04:29:50;;;;;;;;;;;16.50;73.10;;;;;;5055676;28;19924;-80
2022/08/21 04:32:24;;;;;;;;;;;16.50;73.10;;;;;;5082432;28;19916;-80
2022/08/21 04:34:50;;;;;;;;;;;16.50;73.10;;;;;;5084634;28;20367;-81
2022/08/21 04:37:16;;;;;;;;;;;16.50;73.10;;;;;;5081172;28;19912;-80
2022/08/21 04:39:42;;;;;;;;;;;16.50;73.10;;;;;;5070848;28;20371;-80
2022/08/21 04:42:08;;;;;;;;;;;16.50;73.20;;;;;;5084708;28;19954;-76
2022/08/21 04:44:34;;;;;;;;;;;16.50;73.40;;;;;;5085951;28;19909;-77
2022/08/21 04:46:59;;;;;;;;;;;16.40;73.30;;;;;;5084806;28;19934;-80
2022/08/21 04:49:25;;;;;;;;;;;16.50;73.30;;;;;;5086665;28;19935;-77
2022/08/21 04:51:50;;;;;;;;;;;16.50;73.30;;;;;;5089333;28;19909;-77
2022/08/21 04:54:22;;;;;;;;;;;16.50;73.40;;;;;;5090403;28;19912;-76
2022/08/21 04:56:56;;;;;;;;;;;16.50;73.30;;;;;;5090766;28;19899;-76
2022/08/21 04:59:27;;;;;;;;;;;16.50;73.30;;;;;;5093324;28;19897;-77
2022/08/21 05:01:56;;;;;;;;;;;16.50;73.40;;;;;;5076018;28;19952;-80
2022/08/21 05:04:24;;;;;;;;;;;16.50;73.60;;;;;;5059774;28;20382;-81
2022/08/21 05:06:50;;;;;;;;;;;16.50;73.80;;;;;;5061098;28;19943;-81
2022/08/21 05:09:17;;;;;;;;;;;16.50;73.90;;;;;;5060399;28;19989;-81
2022/08/21 05:11:43;;;;;;;;;;;16.50;73.80;;;;;;5064330;28;20275;-81
2022/08/21 05:14:11;;;;;;;;;;;16.60;73.90;;;;;;5064325;28;20262;-81
2022/08/21 05:16:36;;;;;;;;;;;16.60;73.90;;;;;;5073936;28;20485;-81
2022/08/21 05:19:02;;;;;;;;;;;16.70;73.90;;;;;;5068594;28;19966;-81
2022/08/21 05:21:27;;;;;;;;;;;16.70;74.00;;;;;;5083211;28;20003;-77
2022/08/21 05:23:53;;;;;;;;;;;16.70;74.00;;;;;;5092913;28;19924;-77
2022/08/21 05:26:18;;;;;;;;;;;16.70;74.10;;;;;;5092498;28;19919;-77
2022/08/21 05:28:44;;;;;;;;;;;16.80;74.20;;;;;;5091941;28;19921;-76
2022/08/21 05:31:10;;;;;;;;;;;16.80;74.40;;;;;;5090850;28;19917;-76
2022/08/21 05:33:35;;;;;;;;;;;16.80;74.30;;;;;;5075158;28;19919;-76
2022/08/21 05:36:01;;;;;;;;;;;16.90;74.30;;;;;;5093175;28;19943;-76
2022/08/21 05:38:29;;;;;;;;;;;16.90;74.40;;;;;;5092108;28;19939;-76
2022/08/21 05:40:55;;;;;;;;;;;17.00;74.40;;;;;;5090955;28;20364;-76
2022/08/21 05:43:21;;;;;;;;;;;17.10;74.50;;;;;;5073150;28;20004;-76
2022/08/21 05:45:47;;;;;;;;;;;17.10;74.40;;;;;;5073593;28;19912;-76
2022/08/21 05:48:14;;;;;;;;;;;17.20;74.30;;;;;;5090825;28;19912;-77
2022/08/21 05:50:40;;;;;;;;;;;17.20;74.30;;;;;;5090907;28;19912;-76
2022/08/21 05:53:06;;;;;;;;;;;17.30;74.30;;;;;;5092652;28;19908;-76
2022/08/21 05:55:32;;;;;;;;;;;17.30;74.30;;;;;;5090955;28;19916;-77
2022/08/21 05:57:59;;;;;;;;;;;17.40;74.40;;;;;;5093438;28;19909;-76
2022/08/21 06:00:25;;;;;;;;;;;17.40;74.30;;;;;;5087257;28;19909;-76
2022/08/21 06:02:50;;;;;;;;;;;17.50;74.40;;;;;;5081798;28;19946;-76
2022/08/21 06:05:17;;;;;;;;;;;17.50;74.50;;;;;;5084341;28;19927;-76
2022/08/21 06:07:42;;;;;;;;;;;17.60;75.50;;;;;;5092790;28;20298;-77
2022/08/21 06:10:08;;;;;;;;;;;17.70;75.00;;;;;;5093643;28;19908;-77
2022/08/21 06:12:34;;;;;;;;;;;17.80;75.00;;;;;;5080636;28;19913;-82
2022/08/21 06:15:00;;;;;;;;;;;17.80;75.10;;;;;;5083937;28;19917;-81
2022/08/21 06:17:25;;;;;;;;;;;17.90;75.10;;;;;;5074792;28;19909;-78
2022/08/21 06:19:52;;;;;;;;;;;18.00;75.10;;;;;;5079596;28;19928;-78
2022/08/21 06:22:17;;;;;;;;;;;18.00;75.60;;;;;;5079829;28;19984;-78
2022/08/21 06:24:43;;;;;;;;;;;18.10;75.00;;;;;;5053188;28;19917;-82
2022/08/21 06:27:09;;;;;;;;;;;18.20;74.70;;;;;;5050215;28;19921;-82
2022/08/21 06:29:35;;;;;;;;;;;18.30;74.40;;;;;;5073117;28;19920;-79
2022/08/21 06:32:01;;;;;;;;;;;18.40;74.40;;;;;;5074975;28;19968;-74
2022/08/21 06:34:26;;;;;;;;;;;18.50;74.20;;;;;;5077478;28;19912;-77
2022/08/21 06:36:52;;;;;;;;;;;18.50;74.10;;;;;;5090045;28;19927;-74
2022/08/21 06:39:18;;;;;;;;;;;18.50;74.10;;;;;;5077471;28;19928;-74
2022/08/21 06:41:43;;;;;;;;;;;18.50;74.10;;;;;;5089206;28;19919;-74
2022/08/21 06:44:09;;;;;;;;;;;18.60;74.10;;;;;;5068313;28;20271;-74
2022/08/21 06:46:34;;;;;;;;;;;18.60;74.00;;;;;;5063849;28;20039;-74
2022/08/21 06:49:00;;;;;;;;;;;18.70;73.80;;;;;;5061001;28;19943;-74
2022/08/21 06:51:26;;;;;;;;;;;18.70;73.70;;;;;;5064265;28;19917;-73
2022/08/21 06:53:52;;;;;;;;;;;18.70;73.70;;;;;;5064729;28;19924;-73
2022/08/21 06:56:18;;;;;;;;;;;18.80;73.50;;;;;;5066532;28;19959;-73
2022/08/21 06:58:44;;;;;;;;;;;18.90;73.50;;;;;;5061897;28;19963;-74
2022/08/21 07:01:09;;;;;;;;;;;19.00;73.30;;;;;;5069091;28;19916;-73
2022/08/21 07:03:39;;;;;;;;;;;19.10;73.10;;;;;;5067827;28;19916;-73
2022/08/21 07:06:05;;;;;;;;;;;19.10;73.10;;;;;;5064764;28;19925;-73
2022/08/21 07:08:34;;;;;;;;;;;19.20;73.20;;;;;;5065967;28;19924;-79
2022/08/21 07:11:01;;;;;;;;;;;19.20;73.00;;;;;;5064095;28;19917;-74
2022/08/21 07:13:26;;;;;;;;;;;19.30;72.80;;;;;;5072260;28;19919;-76
2022/08/21 07:15:52;;;;;;;;;;;19.40;72.60;;;;;;5083347;28;20007;-73
2022/08/21 07:18:17;;;;;;;;;;;19.50;72.50;;;;;;5066605;28;20332;-77
2022/08/21 07:20:43;;;;;;;;;;;19.60;72.30;;;;;;5073302;28;19913;-77
2022/08/21 07:23:11;;;;;;;;;;;19.70;72.10;;;;;;5072061;28;20005;-75
2022/08/21 07:25:36;;;;;;;;;;;19.70;72.00;;;;;;5071354;28;19912;-75
2022/08/21 07:28:02;;;;;;;;;;;19.70;71.90;;;;;;5055564;28;20315;-75
2022/08/21 07:30:28;;;;;;;;;;;19.70;71.80;;;;;;5074536;28;19924;-75
2022/08/21 07:32:53;;;;;;;;;;;19.70;71.90;;;;;;5070435;28;19954;-76
2022/08/21 07:35:19;;;;;;;;;;;19.80;72.00;;;;;;5045663;28;19959;-76
2022/08/21 07:37:45;;;;;;;;;;;19.80;71.80;;;;;;5071096;28;19951;-76
2022/08/21 07:40:11;;;;;;;;;;;19.90;71.70;;;;;;5072378;28;19997;-76
2022/08/21 07:42:43;;;;;;;;;;;20.00;71.60;;;;;;5065744;28;19986;-76
2022/08/21 07:45:10;;;;;;;;;;;20.10;71.50;;;;;;5061784;28;19916;-73
2022/08/21 07:47:35;;;;;;;;;;;20.30;71.30;;;;;;5070915;28;19912;-72
2022/08/21 07:50:01;;;;;;;;;;;20.40;71.00;;;;;;5072925;28;19940;-72
2022/08/21 07:52:26;;;;;;;;;;;20.60;70.80;;;;;;5064155;28;20271;-72
2022/08/21 07:54:52;;;;;;;;;;;20.60;70.50;;;;;;5056374;28;19924;-74
2022/08/21 07:57:18;;;;;;;;;;;20.80;70.30;;;;;;5070628;28;19917;-82
2022/08/21 07:59:43;;;;;;;;;;;20.90;70.00;;;;;;5065170;28;19916;-78
2022/08/21 08:02:09;;;;;;;;;;;20.90;70.00;;;;;;5071065;28;19970;-77
2022/08/21 08:04:35;;;;;;;;;;;21.00;69.70;;;;;;5055065;28;19916;-78
2022/08/21 08:07:00;;;;;;;;;;;20.90;69.70;;;;;;5072512;28;19920;-75
2022/08/21 08:09:26;;;;;;;;;;;20.90;69.90;;;;;;5066047;28;19929;-78
2022/08/21 08:11:51;;;;;;;;;;;20.90;69.90;;;;;;5065967;28;19962;-80
2022/08/21 08:14:17;;;;;;;;;;;20.90;70.00;;;;;;5062752;28;19974;-80
2022/08/21 08:16:42;;;;;;;;;;;20.80;70.60;;;;;;5077722;28;19916;-81
2022/08/21 08:19:08;;;;;;;;;;;20.80;70.80;;;;;;5066026;28;19935;-79
2022/08/21 08:21:37;;;;;;;;;;;20.90;70.60;;;;;;5052919;28;19916;-81
2022/08/21 08:24:03;;;;;;;;;;;21.10;70.40;;;;;;5059945;28;19963;-80
2022/08/21 08:26:28;;;;;;;;;;;21.20;70.40;;;;;;5057592;28;20322;-79
2022/08/21 08:28:54;;;;;;;;;;;21.20;70.40;;;;;;5074096;28;19916;-78
2022/08/21 08:31:19;;;;;;;;;;;21.20;70.40;;;;;;5060666;28;19966;-79
2022/08/21 08:33:45;;;;;;;;;;;21.30;70.50;;;;;;5075687;28;19976;-79
2022/08/21 08:36:15;;;;;;;;;;;21.40;70.60;;;;;;5067687;28;20283;-80
2022/08/21 08:38:41;;;;;;;;;;;21.40;70.30;;;;;;5074707;28;19920;-79
2022/08/21 08:41:14;;;;;;;;;;;21.40;70.50;;;;;;5073054;28;19919;-78
2022/08/21 08:43:42;;;;;;;;;;;21.60;70.20;;;;;;5068622;28;20386;-80
2022/08/21 08:46:18;;;;;;;;;;;21.60;69.80;;;;;;5070728;28;19923;-79
2022/08/21 08:48:54;;;;;;;;;;;21.70;69.50;;;;;;5071770;28;19913;-80
2022/08/21 08:51:38;;;;;;;;;;;21.80;69.50;;;;;;5062669;28;19919;-79
2022/08/21 08:54:05;;;;;;;;;;;21.90;69.10;;;;;;5070316;28;19912;-78
2022/08/21 08:56:33;;;;;;;;;;;22.10;68.90;;;;;;5067911;28;20402;-79
2022/08/21 08:59:04;;;;;;;;;;;22.30;68.40;;;;;;5059474;28;19920;-78
2022/08/21 09:01:29;;;;;;;;;;;22.50;67.30;;;;;;5064652;28;20379;-79
2022/08/21 09:03:57;;;;;;;;;;;22.50;67.40;;;;;;5054865;28;19917;-79
2022/08/21 09:06:24;;;;;;;;;;;22.50;67.40;;;;;;5077433;28;20371;-79
2022/08/21 09:08:54;;;;;;;;;;;22.60;66.70;;;;;;5068077;28;19950;-80
2022/08/21 09:11:26;;;;;;;;;;;22.70;66.40;;;;;;5065787;28;20318;-78
2022/08/21 09:13:55;;;;;;;;;;;22.80;66.30;;;;;;5072549;28;19916;-79
2022/08/21 09:16:29;;;;;;;;;;;22.80;64.90;;;;;;5066619;28;19916;-79
2022/08/21 09:19:10;;;;;;;;;;;22.80;64.90;;;;;;5071790;28;20442;-80
2022/08/21 09:21:43;;;;;;;;;;;22.80;65.20;;;;;;5075409;28;19913;-80
2022/08/21 09:24:17;;;;;;;;;;;23.00;65.10;;;;;;5072809;28;19962;-80
2022/08/21 09:26:43;;;;;;;;;;;23.20;64.40;;;;;;5067137;28;19912;-76
2022/08/21 09:29:10;;;;;;;;;;;23.30;64.00;;;;;;5063063;28;19913;-78
2022/08/21 09:31:39;;;;;;;;;;;23.50;63.70;;;;;;5066050;28;20386;-79
2022/08/21 09:34:11;;;;;;;;;;;23.70;63.00;;;;;;5069844;28;19912;-78
2022/08/21 09:36:36;;;;;;;;;;;23.70;62.00;;;;;;5066919;28;19912;-79
2022/08/21 09:39:02;;;;;;;;;;;23.70;61.30;;;;;;5067183;28;20500;-81
2022/08/21 09:41:30;;;;;;;;;;;23.80;60.90;;;;;;5069568;28;19916;-79
2022/08/21 09:43:57;;;;;;;;;;;23.80;61.00;;;;;;5069591;28;19944;-80
2022/08/21 09:46:23;;;;;;;;;;;23.90;60.60;;;;;;5074507;28;19916;-80
2022/08/21 09:48:50;;;;;;;;;;;23.90;61.00;;;;;;5075459;28;19930;-78
2022/08/21 09:51:24;;;;;;;;;;;24.00;60.30;;;;;;5065994;28;19912;-77
2022/08/21 09:54:10;;;;;;;;;;;24.10;59.30;;;;;;5065162;28;20358;-78
2022/08/21 09:59:37;;;;;;;;;;;24.50;59.10;;;;;;5072133;28;20743;-77
2022/08/21 10:02:17;;;;;;;;;;;24.60;58.10;;;;;;5071157;28;20007;-77
2022/08/21 10:04:48;;;;;;;;;;;24.60;58.30;;;;;;5065427;28;20335;-79
2022/08/21 10:07:14;;;;;;;;;;;24.70;58.50;;;;;;5074231;28;20283;-76
2022/08/21 10:09:43;;;;;;;;;;;24.90;58.40;;;;;;5071259;28;19970;-77
2022/08/21 10:12:24;;;;;;;;;;;25.10;57.00;;;;;;5060557;28;20003;-78
2022/08/21 10:14:49;;;;;;;;;;;25.20;56.40;;;;;;5072999;28;19917;-79
2022/08/21 10:17:18;;;;;;;;;;;25.30;55.70;;;;;;5072759;28;19908;-78
2022/08/21 10:19:53;;;;;;;;;;;25.50;53.80;;;;;;5061555;28;20288;-80
2022/08/21 10:22:37;;;;;;;;;;;25.40;53.00;;;;;;5083374;28;20442;-77
2022/08/21 10:25:26;;;;;;;;;;;25.40;54.00;;;;;;5085776;28;19917;-79
2022/08/21 10:28:06;;;;;;;;;;;25.40;53.60;;;;;;5067932;28;19919;-79
2022/08/21 10:30:51;;;;;;;;;;;25.40;54.30;;;;;;5070527;28;20014;-79
2022/08/21 10:33:19;;;;;;;;;;;25.50;54.10;;;;;;5064986;28;20329;-79
2022/08/21 10:35:51;;;;;;;;;;;25.70;54.20;;;;;;5067235;28;19919;-79
2022/08/21 10:38:26;;;;;;;;;;;25.80;54.00;;;;;;5070671;28;19915;-79
2022/08/21 10:40:54;;;;;;;;;;;25.90;53.60;;;;;;5065695;28;20367;-79
2022/08/21 10:43:23;;;;;;;;;;;25.90;53.80;;;;;;5077527;28;19919;-80
2022/08/21 10:46:06;;;;;;;;;;;26.10;54.20;;;;;;5068274;28;19912;-78
2022/08/21 10:48:36;;;;;;;;;;;26.00;52.30;;;;;;5079604;28;19948;-79
2022/08/21 10:51:21;;;;;;;;;;;26.20;52.30;;;;;;5068991;28;20269;-81
2022/08/21 10:54:00;;;;;;;;;;;26.40;51.60;;;;;;5074848;28;19912;-80
2022/08/21 10:56:31;;;;;;;;;;;26.50;50.80;;;;;;5064436;28;19913;-80
2022/08/21 10:59:11;;;;;;;;;;;26.50;50.90;;;;;;5057645;28;19916;-79
2022/08/21 11:01:52;;;;;;;;;;;26.60;50.40;;;;;;5059349;28;19920;-81
2022/08/21 11:04:33;;;;;;;;;;;26.50;50.30;;;;;;5070840;28;19961;-80
2022/08/21 11:07:01;;;;;;;;;;;26.30;49.80;;;;;;5074575;28;19927;-80
2022/08/21 11:09:27;;;;;;;;;;;26.00;50.60;;;;;;5082287;28;19928;-79
2022/08/21 11:12:01;;;;;;;;;;;25.90;51.10;;;;;;5086802;28;19924;-78
2022/08/21 11:14:48;;;;;;;;;;;26.10;50.40;;;;;;5086225;28;20356;-79
2022/08/21 11:17:16;;;;;;;;;;;26.30;50.60;;;;;;5084064;28;19912;-79
2022/08/21 11:19:50;;;;;;;;;;;26.20;49.60;;;;;;5082403;28;19916;-78
2022/08/21 11:22:34;;;;;;;;;;;26.10;48.90;;;;;;5083011;28;19912;-78
2022/08/21 11:25:10;;;;;;;;;;;26.20;48.70;;;;;;5077928;28;19920;-79
2022/08/21 11:27:36;;;;;;;;;;;26.40;48.80;;;;;;5079611;28;19912;-79
2022/08/21 11:30:03;;;;;;;;;;;26.70;49.00;;;;;;5087248;28;19923;-81
2022/08/21 11:32:47;;;;;;;;;;;27.00;49.00;;;;;;5083443;28;19958;-78
2022/08/21 11:35:25;;;;;;;;;;;27.20;47.60;;;;;;5073100;28;20243;-81
2022/08/21 11:37:57;;;;;;;;;;;27.40;47.70;;;;;;5077395;28;19919;-81
2022/08/21 11:40:41;;;;;;;;;;;27.50;46.80;;;;;;5062841;28;19924;-79
2022/08/21 11:43:11;;;;;;;;;;;27.70;46.90;;;;;;5069454;28;19954;-80
2022/08/21 11:45:48;;;;;;;;;;;27.70;45.60;;;;;;5068450;28;19923;-79
2022/08/21 11:48:32;;;;;;;;;;;27.80;46.10;;;;;;5076413;28;19919;-78
2022/08/21 11:50:59;;;;;;;;;;;28.10;46.70;;;;;;5072030;28;19912;-80
2022/08/21 11:53:50;;;;;;;;;;;28.30;44.70;;;;;;5081186;28;19912;-79
2022/08/21 11:56:21;;;;;;;;;;;28.40;44.70;;;;;;5074740;28;19981;-80
2022/08/21 11:58:58;;;;;;;;;;;28.50;44.80;;;;;;5072785;28;19924;-80
2022/08/21 12:01:44;;;;;;;;;;;28.70;44.10;;;;;;5076900;28;19912;-80
2022/08/21 12:04:16;;;;;;;;;;;28.70;44.00;;;;;;5076477;28;19921;-79
2022/08/21 12:06:42;;;;;;;;;;;29.00;44.80;;;;;;5082639;28;19916;-80
2022/08/21 12:09:27;;;;;;;;;;;29.20;44.40;;;;;;5076468;28;20011;-79
2022/08/21 12:12:04;;;;;;;;;;;29.30;43.40;;;;;;5074020;28;19927;-79
2022/08/21 12:14:47;;;;;;;;;;;29.40;43.00;;;;;;5078236;28;19965;-80
2022/08/21 12:17:21;;;;;;;;;;;29.40;42.90;;;;;;5099499;28;19919;-80
2022/08/21 12:19:57;;;;;;;;;;;29.30;42.70;;;;;;5083909;28;19916;-80
2022/08/21 12:22:34;;;;;;;;;;;29.20;43.10;;;;;;5083631;28;19965;-80
2022/08/21 12:25:06;;;;;;;;;;;29.30;43.80;;;;;;5077975;28;19932;-81
2022/08/21 12:28:04;;;;;;;;;;;29.40;42.80;;;;;;5080075;28;19973;-81
2022/08/21 12:30:29;;;;;;;;;;;29.40;42.60;;;;;;5085733;28;19958;-78
2022/08/21 12:32:55;;;;;;;;;;;29.50;42.40;;;;;;5077267;28;20472;-80
2022/08/21 12:35:24;;;;;;;;;;;29.40;42.20;;;;;;5068326;28;19912;-80
2022/08/21 12:37:49;;;;;;;;;;;29.40;42.20;;;;;;5064066;28;20392;-78
2022/08/21 12:40:33;;;;;;;;;;;29.60;42.50;;;;;;5070069;28;19923;-80
2022/08/21 12:43:00;;;;;;;;;;;29.60;42.60;;;;;;5078284;28;19912;-77
2022/08/21 12:45:28;;;;;;;;;;;29.60;41.60;;;;;;5076303;28;19913;-78
2022/08/21 12:48:14;;;;;;;;;;;29.70;42.40;;;;;;5082061;28;19913;-80
2022/08/21 12:50:42;;;;;;;;;;;29.80;42.00;;;;;;5060790;28;20054;-78
2022/08/21 12:53:09;;;;;;;;;;;29.90;41.90;;;;;;5080335;28;19916;-78
2022/08/21 12:55:39;;;;;;;;;;;29.90;41.50;;;;;;5078375;28;19920;-78
2022/08/21 12:58:05;;;;;;;;;;;29.90;42.00;;;;;;5080354;28;19919;-78
2022/08/21 13:00:31;;;;;;;;;;;30.10;41.00;;;;;;5081555;28;20276;-80
2022/08/21 13:02:57;;;;;;;;;;;30.30;41.10;;;;;;5077750;28;19920;-78
2022/08/21 13:05:25;;;;;;;;;;;30.30;40.30;;;;;;5074733;28;19931;-78
2022/08/21 13:07:51;;;;;;;;;;;30.20;41.30;;;;;;5080714;28;20283;-78
2022/08/21 13:10:27;;;;;;;;;;;30.30;41.20;;;;;;5082841;28;19916;-78
2022/08/21 13:13:02;;;;;;;;;;;30.40;39.60;;;;;;5078913;28;19924;-80
2022/08/21 13:15:29;;;;;;;;;;;30.40;39.30;;;;;;5083248;28;19912;-79
2022/08/21 13:18:01;;;;;;;;;;;30.40;39.60;;;;;;5081457;28;19961;-78
2022/08/21 13:20:34;;;;;;;;;;;30.50;39.30;;;;;;5079790;28;19924;-78
2022/08/21 13:23:01;;;;;;;;;;;30.60;39.40;;;;;;5081918;28;19917;-78
2022/08/21 13:25:29;;;;;;;;;;;30.80;39.00;;;;;;5070398;28;19912;-80
2022/08/21 13:28:05;;;;;;;;;;;31.00;38.30;;;;;;5077287;28;19960;-77
2022/08/21 13:30:32;;;;;;;;;;;31.00;38.80;;;;;;5074874;28;19917;-79
2022/08/21 13:32:59;;;;;;;;;;;31.10;38.30;;;;;;5086549;28;20127;-79
2022/08/21 13:35:30;;;;;;;;;;;31.20;38.50;;;;;;5079989;28;20394;-78
2022/08/21 13:37:56;;;;;;;;;;;31.20;38.00;;;;;;5080102;28;19961;-79
2022/08/21 13:40:26;;;;;;;;;;;31.30;38.30;;;;;;5081984;28;19916;-79
2022/08/21 13:42:52;;;;;;;;;;;31.30;38.50;;;;;;5085957;28;20383;-78
2022/08/21 13:45:22;;;;;;;;;;;31.30;37.30;;;;;;5077494;28;19955;-78
2022/08/21 13:47:48;;;;;;;;;;;31.30;37.40;;;;;;5076502;28;19952;-79
2022/08/21 13:50:14;;;;;;;;;;;31.50;37.10;;;;;;5079557;28;19964;-78
2022/08/21 13:52:49;;;;;;;;;;;31.50;36.60;;;;;;5077969;28;20347;-78
2022/08/21 13:55:16;;;;;;;;;;;31.60;36.70;;;;;;5076096;28;19923;-79
2022/08/21 13:57:42;;;;;;;;;;;31.60;36.50;;;;;;5086756;28;19920;-78
2022/08/21 14:00:16;;;;;;;;;;;31.40;36.60;;;;;;5053118;28;19950;-78
2022/08/21 14:02:44;;;;;;;;;;;31.30;37.20;;;;;;5084496;28;19991;-78
2022/08/21 14:05:36;;;;;;;;;;;31.30;37.20;;;;;;5072394;28;19928;-78
2022/08/21 14:08:04;;;;;;;;;;;31.40;37.30;;;;;;5060000;28;19924;-78
2022/08/21 14:10:30;;;;;;;;;;;31.50;37.20;;;;;;5072563;28;19923;-80
2022/08/21 14:12:58;;;;;;;;;;;31.70;37.10;;;;;;5062193;28;20006;-80
2022/08/21 14:15:28;;;;;;;;;;;31.70;36.20;;;;;;5075371;28;19912;-79
2022/08/21 14:17:53;;;;;;;;;;;31.60;36.50;;;;;;5079432;28;20325;-80
2022/08/21 14:20:30;;;;;;;;;;;31.40;36.10;;;;;;5073181;28;19970;-79
2022/08/21 14:22:55;;;;;;;;;;;31.40;36.60;;;;;;5082701;28;19989;-80
2022/08/21 14:25:24;;;;;;;;;;;31.60;35.20;;;;;;5070921;28;19920;-79
2022/08/21 14:27:51;;;;;;;;;;;31.60;35.70;;;;;;5077525;28;19981;-80